Time;durP1;ratioP1;P1;durP2;ratioP2;P2;SDS_P1;SDS_P2;PMS_P1;PMS_P2;Temp;Humidity;BMP_temperature;BMP_pressure;BME280_temperature;BME280_humidity;BME280_pressure;Samples;Min_cycle;Max_cycle;Signal;HPM_P1;HPM_P2
2023/05/08 00:00:57;;;;;;;5.10;4.17;;;11.20;99.90;;;;;;4808263;29;20250;-58
2023/05/08 00:03:26;;;;;;;4.47;4.07;;;11.20;99.90;;;;;;4803820;29;20322;-58
2023/05/08 00:05:55;;;;;;;4.47;4.03;;;11.10;99.90;;;;;;4808977;29;20315;-58
2023/05/08 00:08:24;;;;;;;4.57;4.17;;;11.10;99.90;;;;;;4793493;29;20724;-58
2023/05/08 00:10:53;;;;;;;4.37;3.97;;;11.10;99.90;;;;;;4790400;29;20271;-58
2023/05/08 00:13:21;;;;;;;4.50;4.07;;;11.00;99.90;;;;;;4809195;29;20239;-58
2023/05/08 00:15:49;;;;;;;4.50;4.10;;;11.00;99.90;;;;;;4815911;29;20232;-58
2023/05/08 00:18:17;;;;;;;5.53;3.90;;;11.00;99.90;;;;;;4813279;29;20227;-58
2023/05/08 00:20:45;;;;;;;4.87;4.47;;;11.00;99.90;;;;;;4819000;29;20274;-58
2023/05/08 00:23:13;;;;;;;4.30;4.00;;;11.00;99.90;;;;;;4809549;29;20693;-58
2023/05/08 00:25:43;;;;;;;4.43;4.03;;;11.00;99.90;;;;;;4793760;29;20236;-58
2023/05/08 00:28:11;;;;;;;4.27;3.87;;;10.90;99.90;;;;;;4796016;29;20570;-58
2023/05/08 00:30:39;;;;;;;4.50;4.10;;;10.90;99.90;;;;;;4813983;29;20244;-58
2023/05/08 00:33:08;;;;;;;4.13;3.77;;;10.90;99.90;;;;;;4808121;29;20243;-58
2023/05/08 00:35:36;;;;;;;4.27;3.87;;;10.80;99.90;;;;;;4808388;29;20319;-58
2023/05/08 00:38:04;;;;;;;4.20;3.90;;;10.80;99.90;;;;;;4808418;29;20231;-58
2023/05/08 00:40:32;;;;;;;4.30;3.90;;;10.80;99.90;;;;;;4808629;29;20231;-58
2023/05/08 00:43:02;;;;;;;3.90;3.50;;;10.80;99.90;;;;;;4811274;29;20245;-58
2023/05/08 00:45:34;;;;;;;4.73;4.20;;;10.80;99.90;;;;;;4818634;29;20251;-58
2023/05/08 00:48:03;;;;;;;4.73;4.07;;;10.70;99.90;;;;;;4808382;29;20244;-58
2023/05/08 00:50:32;;;;;;;5.37;4.50;;;10.80;99.90;;;;;;4821381;29;20698;-58
2023/05/08 00:53:02;;;;;;;5.13;4.30;;;10.60;99.90;;;;;;4808632;29;20239;-58
2023/05/08 00:55:31;;;;;;;4.43;4.03;;;10.70;99.90;;;;;;4808061;29;20267;-58
2023/05/08 00:58:01;;;;;;;4.57;4.13;;;10.60;99.90;;;;;;4806806;29;20236;-58
2023/05/08 01:00:30;;;;;;;4.17;3.80;;;10.60;99.90;;;;;;4808168;29;20291;-58
2023/05/08 01:03:00;;;;;;;4.23;3.87;;;10.60;99.90;;;;;;4806710;29;20252;-58
2023/05/08 01:05:28;;;;;;;4.83;4.33;;;10.60;99.90;;;;;;4807140;29;20271;-58
2023/05/08 01:07:56;;;;;;;4.90;4.40;;;10.50;99.90;;;;;;4808792;29;20672;-58
2023/05/08 01:10:28;;;;;;;5.07;4.23;;;10.50;99.90;;;;;;4808315;29;20228;-58
2023/05/08 01:13:05;;;;;;;5.00;4.23;;;10.50;99.90;;;;;;4810510;29;20239;-58
2023/05/08 01:15:38;;;;;;;4.63;4.23;;;10.50;99.90;;;;;;4819025;29;20227;-58
2023/05/08 01:18:13;;;;;;;4.40;4.00;;;10.40;99.90;;;;;;4819625;29;20239;-58
2023/05/08 01:20:46;;;;;;;4.37;3.97;;;10.30;99.90;;;;;;4816810;29;20242;-58
2023/05/08 01:23:54;;;;;;;4.70;4.30;;;10.30;99.90;;;;;;4824732;29;20234;-58
2023/05/08 01:26:54;;;;;;;4.23;3.90;;;10.30;99.90;;;;;;4802768;29;20257;-58
2023/05/08 01:29:56;;;;;;;4.60;4.20;;;10.30;99.90;;;;;;4825986;29;20235;-58
2023/05/08 01:32:29;;;;;;;4.57;4.07;;;10.30;99.90;;;;;;4820304;29;20727;-57
2023/05/08 01:35:09;;;;;;;4.40;4.00;;;10.30;99.90;;;;;;4805804;29;20895;-58
2023/05/08 01:37:47;;;;;;;4.73;4.33;;;10.20;99.90;;;;;;4805890;29;20314;-58
2023/05/08 01:40:25;;;;;;;4.70;4.30;;;10.20;99.90;;;;;;4807158;29;20258;-58
2023/05/08 01:42:59;;;;;;;4.83;4.37;;;10.10;99.90;;;;;;4807994;29;20587;-58
2023/05/08 01:45:34;;;;;;;5.80;4.40;;;10.10;99.90;;;;;;4816288;29;20233;-57
2023/05/08 01:48:09;;;;;;;4.87;4.47;;;10.10;99.90;;;;;;4820143;29;20231;-58
2023/05/08 01:50:44;;;;;;;5.70;4.67;;;10.10;99.90;;;;;;4817431;29;20225;-58
2023/05/08 01:53:19;;;;;;;4.60;4.20;;;10.10;99.90;;;;;;4824963;29;20281;-58
2023/05/08 01:55:50;;;;;;;4.83;4.43;;;10.00;99.90;;;;;;4823615;29;20233;-58
2023/05/08 01:58:20;;;;;;;5.10;4.70;;;10.00;99.90;;;;;;4823985;29;20237;-58
2023/05/08 02:00:49;;;;;;;4.57;4.20;;;10.00;99.90;;;;;;4823243;29;20751;-58
2023/05/08 02:03:20;;;;;;;5.17;4.67;;;9.90;99.90;;;;;;4814916;29;20845;-58
2023/05/08 02:05:50;;;;;;;4.83;4.40;;;9.90;99.90;;;;;;4805602;29;20263;-58
2023/05/08 02:08:22;;;;;;;4.70;4.30;;;9.90;99.90;;;;;;4806891;29;20238;-58
2023/05/08 02:10:51;;;;;;;4.73;4.33;;;9.80;99.90;;;;;;4805646;29;20581;-58
2023/05/08 02:13:22;;;;;;;4.97;4.50;;;9.90;99.90;;;;;;4810718;29;20594;-58
2023/05/08 02:15:53;;;;;;;5.43;4.63;;;9.80;99.90;;;;;;4817466;29;20313;-58
2023/05/08 02:18:24;;;;;;;4.73;4.33;;;9.80;99.90;;;;;;4820103;29;20233;-58
2023/05/08 02:20:55;;;;;;;4.97;4.53;;;9.70;99.90;;;;;;4817468;29;20240;-58
2023/05/08 02:23:26;;;;;;;5.13;4.73;;;9.80;99.90;;;;;;4825072;29;20218;-58
2023/05/08 02:25:55;;;;;;;4.60;4.20;;;9.80;99.90;;;;;;4823628;29;20336;-58
2023/05/08 02:28:24;;;;;;;4.40;4.10;;;9.70;99.90;;;;;;4822147;29;20719;-58
2023/05/08 02:30:53;;;;;;;4.60;4.20;;;9.70;99.90;;;;;;4824752;29;20705;-58
2023/05/08 02:33:23;;;;;;;4.43;4.03;;;9.70;99.90;;;;;;4813922;29;20337;-58
2023/05/08 02:35:52;;;;;;;5.07;4.53;;;9.60;99.90;;;;;;4806154;29;20225;-58
2023/05/08 02:38:23;;;;;;;4.67;4.27;;;9.50;99.90;;;;;;4806567;29;20229;-58
2023/05/08 02:40:56;;;;;;;5.83;4.47;;;9.60;99.90;;;;;;4806453;29;20231;-58
2023/05/08 02:43:25;;;;;;;4.60;4.20;;;9.60;99.90;;;;;;4811002;29;20332;-58
2023/05/08 02:46:03;;;;;;;4.73;4.33;;;9.60;99.90;;;;;;4823179;29;20299;-58
2023/05/08 02:48:38;;;;;;;5.00;4.60;;;9.50;99.90;;;;;;4818911;29;20236;-58
2023/05/08 02:51:20;;;;;;;4.50;4.10;;;9.50;99.90;;;;;;4810280;29;20233;-58
2023/05/08 02:53:54;;;;;;;4.40;4.00;;;9.40;99.90;;;;;;4823269;29;20247;-58
2023/05/08 02:56:31;;;;;;;5.10;4.60;;;9.40;99.90;;;;;;4824143;29;20705;-58
2023/05/08 02:59:10;;;;;;;5.03;4.33;;;9.40;99.90;;;;;;4820965;29;20226;-58
2023/05/08 03:01:45;;;;;;;4.87;4.47;;;9.40;99.90;;;;;;4805644;29;20259;-58
2023/05/08 03:04:24;;;;;;;4.50;4.10;;;9.40;99.90;;;;;;4804922;29;20221;-58
2023/05/08 03:06:55;;;;;;;5.63;4.80;;;9.40;99.90;;;;;;4805235;29;20243;-58
2023/05/08 03:09:26;;;;;;;4.87;4.47;;;9.40;99.90;;;;;;4805105;29;20242;-58
2023/05/08 03:12:03;;;;;;;5.13;4.73;;;9.40;99.90;;;;;;4806480;29;20229;-58
2023/05/08 03:14:35;;;;;;;5.37;4.87;;;9.30;99.90;;;;;;4812242;29;20754;-58
2023/05/08 03:17:06;;;;;;;4.73;4.33;;;9.30;99.90;;;;;;4805201;29;20339;-57
2023/05/08 03:19:39;;;;;;;4.57;4.17;;;9.30;99.90;;;;;;4812452;29;20690;-58
2023/05/08 03:22:08;;;;;;;5.00;4.60;;;9.40;99.90;;;;;;4791611;29;20363;-58
2023/05/08 03:24:38;;;;;;;4.90;4.40;;;9.30;99.90;;;;;;4790271;29;20232;-58
2023/05/08 03:27:08;;;;;;;4.87;4.47;;;9.40;99.90;;;;;;4791672;29;20227;-58
2023/05/08 03:29:38;;;;;;;5.13;4.63;;;9.30;99.90;;;;;;4805231;29;20242;-58
2023/05/08 03:32:07;;;;;;;4.90;4.50;;;9.30;99.90;;;;;;4806427;29;20271;-58
2023/05/08 03:34:39;;;;;;;4.73;4.33;;;9.30;99.90;;;;;;4806436;29;20270;-58
2023/05/08 03:37:08;;;;;;;6.00;4.13;;;9.30;99.90;;;;;;4790641;29;20241;-58
2023/05/08 03:39:36;;;;;;;4.90;4.50;;;9.30;99.90;;;;;;4790002;29;20783;-58
2023/05/08 03:42:05;;;;;;;5.10;4.70;;;9.30;99.90;;;;;;4788726;29;20239;-58
2023/05/08 03:44:34;;;;;;;5.00;4.60;;;9.20;99.90;;;;;;4813984;29;20312;-58
2023/05/08 03:47:03;;;;;;;4.87;4.47;;;9.20;99.90;;;;;;4807056;29;20312;-58
2023/05/08 03:49:31;;;;;;;4.37;3.97;;;9.20;99.90;;;;;;4814277;29;20632;-58
2023/05/08 03:52:02;;;;;;;5.30;4.80;;;9.10;99.90;;;;;;4807932;29;20242;-58
2023/05/08 03:54:30;;;;;;;5.50;5.00;;;9.10;99.90;;;;;;4806222;29;20231;-57
2023/05/08 03:57:00;;;;;;;5.33;4.83;;;9.10;99.90;;;;;;4811740;29;20698;-58
2023/05/08 03:59:38;;;;;;;5.13;4.73;;;9.00;99.90;;;;;;4824527;29;20243;-58
2023/05/08 04:02:17;;;;;;;4.77;4.37;;;9.00;99.90;;;;;;4839443;29;20324;-58
2023/05/08 04:04:50;;;;;;;4.70;4.30;;;8.90;99.90;;;;;;4824317;29;20605;-58
2023/05/08 04:07:28;;;;;;;4.90;4.50;;;9.00;99.90;;;;;;4824559;29;20728;-58
2023/05/08 04:10:03;;;;;;;5.10;4.70;;;9.00;99.90;;;;;;4824594;29;20237;-58
2023/05/08 04:12:38;;;;;;;5.23;4.83;;;8.90;99.90;;;;;;4811651;29;20733;-57
2023/05/08 04:15:10;;;;;;;6.50;5.00;;;9.00;99.90;;;;;;4807871;29;20226;-58
2023/05/08 04:17:44;;;;;;;5.50;4.83;;;9.00;99.90;;;;;;4806211;29;20249;-57
2023/05/08 04:20:18;;;;;;;5.33;4.83;;;9.00;99.90;;;;;;4831978;29;20583;-58
2023/05/08 04:22:52;;;;;;;5.63;5.17;;;9.00;99.90;;;;;;4824630;29;20290;-58
2023/05/08 04:25:22;;;;;;;5.53;5.03;;;9.00;99.90;;;;;;4824409;29;20235;-58
2023/05/08 04:27:51;;;;;;;5.73;5.23;;;9.10;99.90;;;;;;4824231;29;20334;-58
2023/05/08 04:30:20;;;;;;;5.50;5.00;;;9.20;99.90;;;;;;4837741;29;20686;-58
2023/05/08 04:32:50;;;;;;;5.70;5.20;;;9.20;99.90;;;;;;4785432;29;1102330;-58
2023/05/08 04:35:19;;;;;;;5.40;5.00;;;9.30;99.90;;;;;;4825005;29;20278;-58
2023/05/08 04:37:49;;;;;;;5.43;4.90;;;9.30;99.90;;;;;;4824948;29;20244;-57
2023/05/08 04:40:18;;;;;;;5.60;5.10;;;9.40;99.90;;;;;;4840516;29;20328;-58
2023/05/08 04:42:46;;;;;;;6.07;5.47;;;9.40;99.90;;;;;;4823894;29;20237;-58
2023/05/08 04:45:17;;;;;;;5.80;5.30;;;9.40;99.90;;;;;;4819292;29;20254;-58
2023/05/08 04:47:46;;;;;;;6.27;5.37;;;9.50;99.90;;;;;;4808058;29;20309;-58
2023/05/08 04:50:14;;;;;;;6.80;5.43;;;9.50;99.90;;;;;;4817941;29;20710;-57
2023/05/08 04:52:42;;;;;;;5.20;4.70;;;9.60;99.90;;;;;;4820921;29;20226;-58
2023/05/08 04:55:12;;;;;;;6.03;5.53;;;9.80;99.90;;;;;;4813213;29;20237;-58
2023/05/08 04:57:40;;;;;;;5.80;5.30;;;9.70;99.90;;;;;;4803808;29;20300;-58
2023/05/08 05:00:10;;;;;;;5.40;4.90;;;9.80;99.90;;;;;;4796557;29;20243;-58
2023/05/08 05:02:40;;;;;;;5.73;5.13;;;9.80;99.90;;;;;;4801100;29;20741;-58
2023/05/08 05:05:10;;;;;;;5.97;5.47;;;9.80;99.90;;;;;;4804553;29;20312;-58
2023/05/08 05:07:40;;;;;;;6.57;5.20;;;9.80;99.90;;;;;;4795630;29;20242;-58
2023/05/08 05:10:09;;;;;;;6.77;5.47;;;9.80;99.90;;;;;;4803708;29;20665;-58
2023/05/08 05:12:39;;;;;;;5.73;5.13;;;9.90;99.90;;;;;;4806071;29;20258;-58
2023/05/08 05:15:08;;;;;;;5.50;5.00;;;10.10;99.90;;;;;;4826839;29;20241;-58
2023/05/08 05:17:37;;;;;;;5.57;5.07;;;10.20;99.90;;;;;;4793024;29;20240;-58
2023/05/08 05:20:07;;;;;;;5.70;5.10;;;10.20;99.90;;;;;;4810995;29;20243;-58
2023/05/08 05:22:36;;;;;;;5.57;4.97;;;10.20;99.90;;;;;;4789851;29;20238;-58
2023/05/08 05:25:04;;;;;;;5.30;4.90;;;10.30;99.90;;;;;;4789868;29;20242;-57
2023/05/08 05:27:35;;;;;;;5.63;5.13;;;10.40;99.90;;;;;;4807382;29;20235;-58
2023/05/08 05:30:07;;;;;;;5.00;4.60;;;10.40;99.90;;;;;;4790435;29;20343;-58
2023/05/08 05:32:36;;;;;;;5.73;5.23;;;10.40;99.90;;;;;;4787114;29;20313;-58
2023/05/08 05:35:06;;;;;;;6.33;4.90;;;10.50;99.90;;;;;;4791691;29;20330;-58
2023/05/08 05:37:34;;;;;;;5.33;4.83;;;10.70;99.90;;;;;;4794871;29;20245;-57
2023/05/08 05:40:03;;;;;;;5.40;4.90;;;10.90;99.90;;;;;;4792096;29;20235;-57
2023/05/08 05:42:34;;;;;;;5.53;5.00;;;10.90;99.90;;;;;;4789438;29;20258;-58
2023/05/08 05:45:02;;;;;;;5.97;4.80;;;11.00;99.90;;;;;;4807594;29;20242;-57
2023/05/08 05:47:33;;;;;;;5.43;4.77;;;11.10;99.90;;;;;;4791984;29;20747;-57
2023/05/08 05:50:02;;;;;;;5.40;4.90;;;11.20;99.90;;;;;;4807599;29;20234;-58
2023/05/08 05:52:32;;;;;;;4.93;4.43;;;11.40;99.90;;;;;;4790065;29;20244;-57
2023/05/08 05:55:00;;;;;;;5.50;5.00;;;11.40;99.90;;;;;;4790669;29;20238;-58
2023/05/08 05:57:28;;;;;;;5.23;4.77;;;11.60;99.90;;;;;;4791504;29;20329;-58
2023/05/08 05:59:58;;;;;;;5.47;4.97;;;11.50;99.90;;;;;;4793292;29;20247;-58
2023/05/08 06:02:27;;;;;;;5.87;5.37;;;11.50;99.90;;;;;;4786677;29;20258;-57
2023/05/08 06:04:56;;;;;;;5.93;4.53;;;11.60;99.90;;;;;;4791790;29;20235;-58
2023/05/08 06:07:24;;;;;;;5.23;4.73;;;11.80;99.90;;;;;;4792717;29;20244;-57
2023/05/08 06:09:53;;;;;;;5.43;4.83;;;12.10;99.90;;;;;;4792974;29;20233;-57
2023/05/08 06:12:21;;;;;;;4.80;4.40;;;12.20;99.90;;;;;;4805125;29;20244;-58
2023/05/08 06:14:51;;;;;;;5.23;4.73;;;12.30;99.90;;;;;;4790789;29;20239;-58
2023/05/08 06:17:19;;;;;;;5.60;5.10;;;12.40;99.90;;;;;;4791021;29;20241;-57
2023/05/08 06:19:49;;;;;;;5.53;5.03;;;12.30;99.90;;;;;;4806839;29;20716;-58
2023/05/08 06:22:19;;;;;;;5.30;4.83;;;12.40;99.90;;;;;;4788696;29;20266;-57
2023/05/08 06:24:47;;;;;;;6.73;5.57;;;12.40;99.90;;;;;;4792155;29;20857;-58
2023/05/08 06:27:15;;;;;;;5.00;4.60;;;12.70;99.90;;;;;;4792518;29;20226;-58
2023/05/08 06:29:43;;;;;;;6.23;5.17;;;12.80;99.90;;;;;;4792829;29;20235;-58
2023/05/08 06:32:11;;;;;;;5.50;5.00;;;12.80;99.90;;;;;;4789470;29;20244;-58
2023/05/08 06:34:39;;;;;;;5.23;4.73;;;12.80;99.90;;;;;;4791530;29;20252;-58
2023/05/08 06:37:07;;;;;;;5.20;4.67;;;12.80;99.90;;;;;;4792338;29;20264;-58
2023/05/08 06:39:36;;;;;;;5.37;4.87;;;12.80;99.90;;;;;;4793263;29;20774;-58
2023/05/08 06:42:05;;;;;;;5.33;4.80;;;12.90;99.90;;;;;;4791134;29;20244;-58
2023/05/08 06:44:39;;;;;;;5.60;4.97;;;12.90;99.90;;;;;;4791000;29;20253;-56
2023/05/08 06:47:07;;;;;;;5.80;5.30;;;13.20;99.90;;;;;;4792530;29;20704;-57
2023/05/08 06:49:36;;;;;;;5.90;5.30;;;13.20;99.90;;;;;;4792216;29;20244;-56
2023/05/08 06:52:04;;;;;;;5.73;5.23;;;13.10;99.90;;;;;;4790338;29;20246;-57
2023/05/08 06:54:32;;;;;;;5.80;5.30;;;13.10;99.90;;;;;;4792361;29;20244;-57
2023/05/08 06:57:02;;;;;;;5.53;5.03;;;13.20;99.90;;;;;;4795178;29;20244;-57
2023/05/08 06:59:30;;;;;;;5.60;5.10;;;13.10;99.90;;;;;;4795741;29;20243;-57
2023/05/08 07:01:58;;;;;;;5.50;5.00;;;13.50;99.90;;;;;;4793310;29;20249;-56
2023/05/08 07:04:26;;;;;;;5.93;5.40;;;13.70;99.90;;;;;;4796212;29;20266;-57
2023/05/08 07:06:54;;;;;;;5.53;5.03;;;13.90;99.90;;;;;;4794943;29;20237;-57
2023/05/08 07:09:22;;;;;;;6.37;5.80;;;13.90;99.90;;;;;;4798314;29;20243;-57
2023/05/08 07:11:50;;;;;;;5.77;5.20;;;14.00;99.90;;;;;;4797604;29;20240;-58
2023/05/08 07:14:20;;;;;;;5.77;5.27;;;13.90;99.90;;;;;;4797531;29;20245;-57
2023/05/08 07:16:48;;;;;;;7.53;5.43;;;13.80;99.90;;;;;;4796543;29;21465;-56
2023/05/08 07:19:16;;;;;;;6.03;5.53;;;14.00;99.90;;;;;;4794761;29;20247;-57
2023/05/08 07:21:45;;;;;;;6.47;5.87;;;13.90;99.90;;;;;;4792317;29;20586;-57
2023/05/08 07:24:13;;;;;;;6.67;6.00;;;13.80;99.90;;;;;;4793747;29;20247;-58
2023/05/08 07:26:41;;;;;;;6.60;6.00;;;13.60;99.90;;;;;;4795629;29;20572;-58
2023/05/08 07:29:09;;;;;;;6.10;5.60;;;13.60;99.90;;;;;;4793344;29;20225;-57
2023/05/08 07:31:40;;;;;;;6.60;6.00;;;13.80;99.90;;;;;;4792691;29;20265;-57
2023/05/08 07:34:08;;;;;;;6.80;6.20;;;14.00;99.90;;;;;;4793896;29;20256;-57
2023/05/08 07:36:37;;;;;;;6.10;5.60;;;14.00;99.90;;;;;;4794173;29;20240;-57
2023/05/08 07:39:05;;;;;;;6.70;6.10;;;14.20;99.90;;;;;;4794444;29;20244;-57
2023/05/08 07:41:34;;;;;;;6.87;6.23;;;14.10;99.90;;;;;;4795912;29;20243;-56
2023/05/08 07:44:03;;;;;;;6.83;6.23;;;13.90;99.90;;;;;;4797793;29;21377;-58
2023/05/08 07:46:31;;;;;;;7.03;6.33;;;14.00;99.90;;;;;;4797411;29;20326;-57
2023/05/08 07:49:00;;;;;;;9.50;6.57;;;14.40;99.90;;;;;;4798903;29;20260;-58
2023/05/08 07:51:28;;;;;;;6.60;6.00;;;15.00;99.90;;;;;;4796647;29;20244;-57
2023/05/08 07:53:56;;;;;;;7.20;5.77;;;15.30;99.90;;;;;;4797510;29;20255;-58
2023/05/08 07:56:24;;;;;;;5.77;5.27;;;15.70;99.90;;;;;;4797994;29;20240;-58
2023/05/08 07:58:52;;;;;;;6.27;5.67;;;15.90;99.90;;;;;;4798198;29;20244;-58
2023/05/08 08:01:20;;;;;;;6.67;6.03;;;15.80;99.90;;;;;;4794899;29;20248;-57
2023/05/08 08:03:48;;;;;;;6.67;6.00;;;15.60;99.90;;;;;;4792831;29;20236;-58
2023/05/08 08:06:18;;;;;;;6.23;5.70;;;15.60;99.90;;;;;;4794139;29;20339;-58
2023/05/08 08:08:46;;;;;;;6.70;6.10;;;16.00;99.90;;;;;;4794254;29;20244;-58
2023/05/08 08:11:14;;;;;;;6.37;5.87;;;15.80;99.90;;;;;;4794674;29;20232;-57
2023/05/08 08:13:42;;;;;;;6.50;5.90;;;15.40;99.90;;;;;;4792853;29;20636;-57
2023/05/08 08:16:10;;;;;;;9.03;6.13;;;15.40;99.90;;;;;;4797425;29;20248;-57
2023/05/08 08:18:39;;;;;;;6.53;5.93;;;15.80;99.90;;;;;;4797498;29;20245;-56
2023/05/08 08:21:07;;;;;;;6.53;5.93;;;16.00;99.90;;;;;;5308685;24;20266;-56
2023/05/08 08:23:37;;;;;;;6.70;6.00;;;16.40;99.90;;;;;;4805024;29;20244;-56
2023/05/08 08:26:05;;;;;;;7.93;6.53;;;16.80;99.90;;;;;;4810453;29;20244;-56
2023/05/08 08:28:33;;;;;;;6.97;6.20;;;17.00;99.90;;;;;;4810563;29;20250;-57
2023/05/08 08:31:02;;;;;;;7.67;6.93;;;16.70;99.90;;;;;;4810929;29;20248;-57
2023/05/08 08:33:30;;;;;;;6.80;6.13;;;16.70;99.90;;;;;;4807010;29;21038;-56
2023/05/08 08:35:58;;;;;;;6.87;6.30;;;17.10;99.90;;;;;;4810683;29;20331;-56
2023/05/08 08:38:26;;;;;;;6.60;6.00;;;17.10;99.90;;;;;;4809985;29;20251;-56
2023/05/08 08:40:55;;;;;;;10.87;6.27;;;17.30;99.90;;;;;;4810001;29;20243;-57
2023/05/08 08:43:24;;;;;;;7.63;5.83;;;17.40;99.90;;;;;;4807380;29;20724;-57
2023/05/08 08:45:52;;;;;;;6.33;5.73;;;17.20;99.90;;;;;;4809179;29;20248;-57
2023/05/08 08:48:21;;;;;;;6.93;6.33;;;17.60;99.90;;;;;;4812462;29;20316;-56
2023/05/08 08:50:53;;;;;;;7.23;6.23;;;17.60;99.90;;;;;;4812063;29;20244;-57
2023/05/08 08:53:26;;;;;;;7.10;6.50;;;17.80;99.90;;;;;;4811938;29;20243;-57
2023/05/08 08:55:58;;;;;;;6.17;5.67;;;17.90;99.90;;;;;;4811354;29;20268;-57
2023/05/08 08:58:33;;;;;;;6.57;5.97;;;17.40;99.90;;;;;;4811636;29;20256;-57
2023/05/08 09:01:07;;;;;;;8.27;6.70;;;17.10;99.90;;;;;;4811729;29;20273;-57
2023/05/08 09:03:35;;;;;;;7.17;6.47;;;17.00;99.90;;;;;;4808898;29;20263;-57
2023/05/08 09:06:04;;;;;;;7.17;6.47;;;17.40;99.90;;;;;;4808638;29;20648;-57
2023/05/08 09:08:32;;;;;;;7.50;6.37;;;17.60;99.90;;;;;;4808665;29;20236;-57
2023/05/08 09:11:02;;;;;;;6.93;6.30;;;17.40;99.90;;;;;;4808682;29;20234;-57
2023/05/08 09:13:30;;;;;;;7.13;6.40;;;17.50;99.90;;;;;;4807426;29;20244;-57
2023/05/08 09:15:59;;;;;;;7.00;6.30;;;17.70;99.90;;;;;;4808749;29;20229;-57
2023/05/08 09:18:30;;;;;;;7.40;6.80;;;17.80;99.90;;;;;;4807798;29;20818;-55
2023/05/08 09:20:59;;;;;;;6.83;6.23;;;18.00;99.90;;;;;;4809124;29;20326;-57
2023/05/08 09:23:27;;;;;;;6.67;6.13;;;18.10;99.90;;;;;;4807113;29;20249;-57
2023/05/08 09:25:56;;;;;;;7.50;6.63;;;18.60;99.90;;;;;;4810219;29;20379;-57
2023/05/08 09:28:26;;;;;;;8.90;6.37;;;18.30;99.90;;;;;;4811350;29;20710;-57
2023/05/08 09:30:55;;;;;;;6.97;6.43;;;18.70;99.90;;;;;;4811100;29;20246;-57
2023/05/08 09:33:25;;;;;;;7.90;6.50;;;18.40;99.90;;;;;;4808885;29;20253;-56
2023/05/08 09:35:53;;;;;;;7.57;6.87;;;18.20;99.90;;;;;;4809564;29;20226;-57
2023/05/08 09:38:35;;;;;;;7.43;6.63;;;18.20;99.90;;;;;;4808078;29;20342;-56
2023/05/08 09:41:08;;;;;;;6.60;6.00;;;18.50;99.90;;;;;;4808391;29;20239;-57
2023/05/08 09:43:38;;;;;;;6.40;5.90;;;18.80;99.90;;;;;;4806349;29;20761;-57
2023/05/08 09:46:23;;;;;;;6.80;6.20;;;19.30;99.90;;;;;;4807927;29;20715;-57
2023/05/08 09:48:53;;;;;;;6.57;6.00;;;19.60;99.90;;;;;;4807293;29;20238;-57
2023/05/08 09:51:21;;;;;;;8.50;6.70;;;19.80;99.90;;;;;;4809689;29;20254;-56
2023/05/08 09:53:51;;;;;;;6.57;6.03;;;20.10;99.90;;;;;;4810319;29;20380;-57
2023/05/08 09:56:30;;;;;;;7.53;6.07;;;19.80;99.90;;;;;;4811279;29;20262;-56
2023/05/08 09:59:00;;;;;;;7.53;6.07;;;19.80;99.90;;;;;;4811086;29;20242;-56
2023/05/08 10:01:29;;;;;;;7.53;6.03;;;19.90;99.90;;;;;;4806720;29;20249;-57
2023/05/08 10:03:58;;;;;;;6.77;6.07;;;19.80;99.90;;;;;;4808004;29;20245;-57
2023/05/08 10:06:27;;;;;;;6.83;5.90;;;19.80;99.90;;;;;;4808711;29;20254;-57
2023/05/08 10:09:11;;;;;;;6.83;6.13;;;19.50;99.90;;;;;;4808116;29;20237;-57
2023/05/08 10:11:40;;;;;;;6.90;6.30;;;19.00;99.90;;;;;;4805185;29;21060;-56
2023/05/08 10:14:10;;;;;;;7.27;6.67;;;18.60;99.90;;;;;;4807874;29;20240;-57
2023/05/08 10:16:43;;;;;;;6.93;6.33;;;18.50;99.90;;;;;;4807869;29;20355;-56
2023/05/08 10:19:15;;;;;;;7.00;6.40;;;18.70;99.90;;;;;;4808794;29;20247;-57
2023/05/08 10:21:47;;;;;;;6.70;6.10;;;18.60;99.90;;;;;;4803448;29;20262;-57
2023/05/08 10:24:17;;;;;;;7.50;6.90;;;18.30;99.90;;;;;;4806402;29;20242;-56
2023/05/08 10:26:55;;;;;;;7.03;6.40;;;18.40;99.90;;;;;;4807932;29;20552;-57
2023/05/08 10:29:43;;;;;;;7.10;6.50;;;18.20;99.90;;;;;;4807646;29;20734;-57
2023/05/08 10:32:13;;;;;;;6.23;5.67;;;18.10;99.90;;;;;;4804609;29;20257;-57
2023/05/08 10:34:42;;;;;;;6.97;6.40;;;18.20;99.90;;;;;;4806599;29;20652;-57
2023/05/08 10:37:10;;;;;;;6.73;6.13;;;18.20;99.90;;;;;;4808176;29;20242;-57
2023/05/08 10:39:40;;;;;;;7.03;6.00;;;18.10;99.90;;;;;;4807764;29;20337;-57
2023/05/08 10:42:08;;;;;;;6.40;5.80;;;18.40;99.90;;;;;;4804847;29;20346;-56
2023/05/08 10:44:38;;;;;;;8.00;6.40;;;18.90;99.90;;;;;;4805277;29;20699;-57
2023/05/08 10:47:16;;;;;;;6.50;5.90;;;19.50;99.90;;;;;;4801388;29;20731;-58
2023/05/08 10:49:51;;;;;;;5.43;4.93;;;19.50;99.90;;;;;;4806778;29;20241;-57
2023/05/08 10:52:31;;;;;;;5.97;5.47;;;19.40;99.90;;;;;;4804036;29;20235;-57
2023/05/08 10:55:22;;;;;;;7.43;5.50;;;19.20;99.90;;;;;;4805527;29;20250;-57
2023/05/08 10:58:10;;;;;;;5.50;5.00;;;19.80;99.90;;;;;;4806882;29;20694;-56
2023/05/08 11:01:14;;;;;;;6.10;5.60;;;20.40;99.90;;;;;;4806928;29;21002;-57
2023/05/08 11:03:49;;;;;;;4.97;4.57;;;20.50;99.90;;;;;;4805466;29;20235;-57
2023/05/08 11:06:18;;;;;;;5.47;4.97;;;21.00;99.90;;;;;;4810476;29;20242;-57
2023/05/08 11:08:53;;;;;;;5.93;5.43;;;20.90;99.90;;;;;;4807145;29;20259;-56
2023/05/08 11:11:26;;;;;;;5.73;5.13;;;20.80;99.90;;;;;;4805858;29;20585;-56
2023/05/08 11:13:59;;;;;;;5.07;4.67;;;21.10;99.90;;;;;;4804547;29;20247;-57
2023/05/08 11:17:05;;;;;;;7.07;5.33;;;20.80;99.90;;;;;;4801608;29;20790;-57
2023/05/08 11:19:33;;;;;;;5.27;4.80;;;20.90;99.90;;;;;;4803508;29;20951;-56
2023/05/08 11:22:32;;;;;;;5.60;5.10;;;20.70;99.90;;;;;;4800462;29;20731;-57
2023/05/08 11:25:05;;;;;;;5.43;4.93;;;20.70;99.90;;;;;;4766729;29;20295;-57
2023/05/08 11:28:12;;;;;;;6.23;4.83;;;21.00;99.90;;;;;;4799575;29;20289;-57
2023/05/08 11:30:40;;;;;;;5.00;4.60;;;21.30;99.90;;;;;;4806464;29;20239;-57
2023/05/08 11:33:17;;;;;;;5.20;4.60;;;21.40;99.90;;;;;;4804763;29;20239;-57
2023/05/08 11:35:51;;;;;;;5.53;4.70;;;21.50;99.90;;;;;;4807318;29;21128;-56
2023/05/08 11:38:28;;;;;;;8.73;4.97;;;21.40;99.90;;;;;;4805930;29;20239;-56
2023/05/08 11:41:04;;;;;;;4.40;4.00;;;21.50;99.90;;;;;;4807371;29;20239;-57
2023/05/08 11:44:01;;;;;;;7.33;4.70;;;21.40;99.90;;;;;;4806387;29;20238;-55
2023/05/08 11:46:39;;;;;;;4.93;4.53;;;21.50;99.90;;;;;;4808222;29;20236;-57
2023/05/08 11:49:15;;;;;;;4.90;4.50;;;21.50;99.90;;;;;;4810512;29;20334;-57
2023/05/08 11:51:45;;;;;;;4.80;4.20;;;21.80;99.90;;;;;;4811301;29;20287;-56
2023/05/08 11:54:16;;;;;;;5.87;4.90;;;21.40;99.90;;;;;;4812747;29;20247;-58
2023/05/08 11:56:46;;;;;;;4.93;4.53;;;21.20;99.90;;;;;;4812472;29;20240;-57
2023/05/08 11:59:15;;;;;;;6.27;4.23;;;21.30;99.90;;;;;;4813290;29;20240;-56
2023/05/08 12:01:44;;;;;;;5.00;4.50;;;21.20;99.90;;;;;;4806488;29;20567;-56
2023/05/08 12:04:28;;;;;;;4.87;4.30;;;21.20;99.90;;;;;;4807594;29;20673;-56
2023/05/08 12:06:58;;;;;;;7.77;4.63;;;21.40;99.90;;;;;;4807397;29;20229;-56
2023/05/08 12:09:26;;;;;;;4.17;3.87;;;21.60;99.90;;;;;;4808765;29;20224;-57
2023/05/08 12:11:57;;;;;;;4.10;3.80;;;21.50;99.90;;;;;;4807942;29;20240;-56
2023/05/08 12:14:25;;;;;;;4.13;3.60;;;21.40;99.90;;;;;;4806858;29;20704;-56
2023/05/08 12:16:54;;;;;;;4.03;3.73;;;21.40;99.90;;;;;;4805012;29;20235;-57
2023/05/08 12:19:22;;;;;;;3.83;3.53;;;21.50;99.90;;;;;;4808327;29;20275;-56
2023/05/08 12:21:51;;;;;;;4.53;3.47;;;21.60;99.90;;;;;;4805769;29;20310;-56
2023/05/08 12:24:21;;;;;;;4.10;3.60;;;21.50;99.90;;;;;;4809314;29;20246;-56
2023/05/08 12:26:54;;;;;;;3.97;3.67;;;21.40;99.90;;;;;;4808159;29;20244;-56
2023/05/08 12:29:22;;;;;;;4.10;3.70;;;21.40;99.90;;;;;;4809291;29;20232;-57
2023/05/08 12:31:52;;;;;;;4.17;3.87;;;21.20;99.90;;;;;;4803765;29;20264;-55
2023/05/08 12:34:21;;;;;;;4.43;3.77;;;20.80;99.90;;;;;;4808935;29;20263;-56
2023/05/08 12:37:01;;;;;;;4.17;3.73;;;21.10;99.90;;;;;;4807576;29;20236;-55
2023/05/08 12:39:29;;;;;;;3.53;3.23;;;21.10;99.90;;;;;;4808994;29;20246;-57
2023/05/08 12:41:57;;;;;;;4.73;3.40;;;21.20;99.90;;;;;;4806507;29;20243;-57
2023/05/08 12:44:27;;;;;;;4.40;3.57;;;21.30;99.90;;;;;;4807930;29;20258;-57
2023/05/08 12:46:57;;;;;;;4.17;3.57;;;21.20;99.90;;;;;;4807688;29;20699;-57
2023/05/08 12:49:29;;;;;;;4.37;3.60;;;21.20;99.90;;;;;;4809241;29;20228;-56
2023/05/08 12:52:04;;;;;;;3.37;3.03;;;21.40;99.90;;;;;;4806192;29;20254;-57
2023/05/08 12:54:33;;;;;;;3.47;3.23;;;21.00;99.90;;;;;;4808751;29;20300;-56
2023/05/08 12:57:08;;;;;;;3.63;3.20;;;21.10;99.90;;;;;;4807301;29;20252;-58
2023/05/08 12:59:37;;;;;;;5.27;3.27;;;21.20;99.90;;;;;;4807222;29;20241;-56
2023/05/08 13:02:11;;;;;;;3.60;3.30;;;21.20;99.90;;;;;;4802237;29;20240;-58
2023/05/08 13:04:39;;;;;;;3.70;3.23;;;21.20;99.90;;;;;;4805716;29;20247;-56
2023/05/08 13:07:09;;;;;;;4.10;3.17;;;21.10;99.90;;;;;;4805660;29;20243;-57
2023/05/08 13:09:37;;;;;;;4.50;3.07;;;21.10;99.90;;;;;;4806547;29;20227;-56